sensor_id;sensor_type;location;lat;lon;timestamp;temperature;humidity
62998;DHT22;55949;52.590;7.330;2023-05-10T00:00:00;14.60;99.90
62998;DHT22;55949;52.590;7.330;2023-05-10T00:01:01;14.50;99.90
62998;DHT22;55949;52.590;7.330;2023-05-10T00:02:03;14.70;99.90
62998;DHT22;55949;52.590;7.330;2023-05-10T00:03:03;14.80;99.90
62998;DHT22;55949;52.590;7.330;2023-05-10T00:04:05;14.90;99.90
62998;DHT22;55949;52.590;7.330;2023-05-10T00:05:06;15.00;99.90
62998;DHT22;55949;52.590;7.330;2023-05-10T00:06:07;14.80;99.90
62998;DHT22;55949;52.590;7.330;2023-05-10T00:07:07;14.70;99.90
62998;DHT22;55949;52.590;7.330;2023-05-10T00:08:08;14.40;99.90
62998;DHT22;55949;52.590;7.330;2023-05-10T00:09:09;14.60;99.90
62998;DHT22;55949;52.590;7.330;2023-05-10T00:10:10;14.60;99.90
62998;DHT22;55949;52.590;7.330;2023-05-10T00:11:11;14.80;99.90
62998;DHT22;55949;52.590;7.330;2023-05-10T00:12:12;15.00;99.90
62998;DHT22;55949;52.590;7.330;2023-05-10T00:13:13;15.20;99.90
62998;DHT22;55949;52.590;7.330;2023-05-10T00:14:14;15.10;99.90
62998;DHT22;55949;52.590;7.330;2023-05-10T00:15:14;15.10;99.90
62998;DHT22;55949;52.590;7.330;2023-05-10T00:16:15;14.80;99.90
62998;DHT22;55949;52.590;7.330;2023-05-10T00:17:16;14.80;99.90
62998;DHT22;55949;52.590;7.330;2023-05-10T00:18:16;14.90;99.90
62998;DHT22;55949;52.590;7.330;2023-05-10T00:19:17;15.00;99.90
62998;DHT22;55949;52.590;7.330;2023-05-10T00:20:18;14.90;99.90
62998;DHT22;55949;52.590;7.330;2023-05-10T00:21:18;14.70;99.90
62998;DHT22;55949;52.590;7.330;2023-05-10T00:22:20;14.70;99.90
62998;DHT22;55949;52.590;7.330;2023-05-10T00:23:21;14.80;99.90
62998;DHT22;55949;52.590;7.330;2023-05-10T00:24:22;14.70;99.90
62998;DHT22;55949;52.590;7.330;2023-05-10T00:25:22;14.60;99.90
62998;DHT22;55949;52.590;7.330;2023-05-10T00:26:23;14.60;99.90
62998;DHT22;55949;52.590;7.330;2023-05-10T00:27:24;14.60;99.90
62998;DHT22;55949;52.590;7.330;2023-05-10T00:28:24;14.50;99.90
62998;DHT22;55949;52.590;7.330;2023-05-10T00:29:25;14.50;99.90
62998;DHT22;55949;52.590;7.330;2023-05-10T00:30:26;14.50;99.90
62998;DHT22;55949;52.590;7.330;2023-05-10T00:31:27;14.50;99.90
62998;DHT22;55949;52.590;7.330;2023-05-10T00:32:27;14.50;99.90
62998;DHT22;55949;52.590;7.330;2023-05-10T00:33:28;14.60;99.90
62998;DHT22;55949;52.590;7.330;2023-05-10T00:34:29;14.60;99.90
62998;DHT22;55949;52.590;7.330;2023-05-10T00:35:30;14.60;99.90
62998;DHT22;55949;52.590;7.330;2023-05-10T00:36:31;14.70;99.90
62998;DHT22;55949;52.590;7.330;2023-05-10T00:37:32;14.70;99.90
62998;DHT22;55949;52.590;7.330;2023-05-10T00:38:33;14.70;99.90
62998;DHT22;55949;52.590;7.330;2023-05-10T00:39:34;14.70;99.90
62998;DHT22;55949;52.590;7.330;2023-05-10T00:40:36;14.70;99.90
62998;DHT22;55949;52.590;7.330;2023-05-10T00:41:37;14.30;99.90
62998;DHT22;55949;52.590;7.330;2023-05-10T00:42:38;14.20;99.90
62998;DHT22;55949;52.590;7.330;2023-05-10T00:43:39;14.30;99.90
62998;DHT22;55949;52.590;7.330;2023-05-10T00:44:39;14.30;99.90
62998;DHT22;55949;52.590;7.330;2023-05-10T00:45:41;14.30;99.90
62998;DHT22;55949;52.590;7.330;2023-05-10T00:46:42;14.20;99.90
62998;DHT22;55949;52.590;7.330;2023-05-10T00:47:43;14.20;99.90
62998;DHT22;55949;52.590;7.330;2023-05-10T00:48:44;14.10;99.90
62998;DHT22;55949;52.590;7.330;2023-05-10T00:49:45;14.00;99.90
62998;DHT22;55949;52.590;7.330;2023-05-10T00:50:46;14.00;99.90
62998;DHT22;55949;52.590;7.330;2023-05-10T00:51:47;14.00;99.90
62998;DHT22;55949;52.590;7.330;2023-05-10T00:52:49;14.00;99.90
62998;DHT22;55949;52.590;7.330;2023-05-10T00:53:49;14.20;99.90
62998;DHT22;55949;52.590;7.330;2023-05-10T00:54:52;14.10;99.90
62998;DHT22;55949;52.590;7.330;2023-05-10T00:55:53;14.10;99.90
62998;DHT22;55949;52.590;7.330;2023-05-10T00:56:54;14.10;99.90
62998;DHT22;55949;52.590;7.330;2023-05-10T00:57:54;14.10;99.90
62998;DHT22;55949;52.590;7.330;2023-05-10T00:58:56;14.20;99.90
62998;DHT22;55949;52.590;7.330;2023-05-10T00:59:57;14.10;99.90
62998;DHT22;55949;52.590;7.330;2023-05-10T01:00:59;14.00;99.90
62998;DHT22;55949;52.590;7.330;2023-05-10T01:02:01;13.80;99.90
62998;DHT22;55949;52.590;7.330;2023-05-10T01:03:02;13.60;99.90
62998;DHT22;55949;52.590;7.330;2023-05-10T01:04:03;13.50;99.90
62998;DHT22;55949;52.590;7.330;2023-05-10T01:05:04;13.40;99.90
62998;DHT22;55949;52.590;7.330;2023-05-10T01:06:06;13.40;99.90
62998;DHT22;55949;52.590;7.330;2023-05-10T01:07:07;13.40;99.90
62998;DHT22;55949;52.590;7.330;2023-05-10T01:08:08;13.40;99.90
62998;DHT22;55949;52.590;7.330;2023-05-10T01:09:09;13.40;99.90
62998;DHT22;55949;52.590;7.330;2023-05-10T01:10:12;13.40;99.90
62998;DHT22;55949;52.590;7.330;2023-05-10T01:11:13;13.50;99.90
62998;DHT22;55949;52.590;7.330;2023-05-10T01:12:14;13.50;99.90
62998;DHT22;55949;52.590;7.330;2023-05-10T01:13:23;13.50;99.90
62998;DHT22;55949;52.590;7.330;2023-05-10T01:14:26;13.50;99.90
62998;DHT22;55949;52.590;7.330;2023-05-10T01:15:27;13.60;99.90
62998;DHT22;55949;52.590;7.330;2023-05-10T01:16:32;13.60;99.90
62998;DHT22;55949;52.590;7.330;2023-05-10T01:17:35;13.30;99.90
62998;DHT22;55949;52.590;7.330;2023-05-10T01:18:40;13.20;99.90
62998;DHT22;55949;52.590;7.330;2023-05-10T01:19:41;13.30;99.90
62998;DHT22;55949;52.590;7.330;2023-05-10T01:20:44;13.40;99.90
62998;DHT22;55949;52.590;7.330;2023-05-10T01:21:53;13.50;99.90
62998;DHT22;55949;52.590;7.330;2023-05-10T01:23:11;13.70;99.90
62998;DHT22;55949;52.590;7.330;2023-05-10T01:32:35;13.60;99.90
62998;DHT22;55949;52.590;7.330;2023-05-10T01:33:54;13.60;99.90
62998;DHT22;55949;52.590;7.330;2023-05-10T01:36:32;13.90;99.90
62998;DHT22;55949;52.590;7.330;2023-05-10T01:37:50;14.10;99.90
62998;DHT22;55949;52.590;7.330;2023-05-10T01:39:32;13.80;99.90
62998;DHT22;55949;52.590;7.330;2023-05-10T01:42:08;13.60;99.90
62998;DHT22;55949;52.590;7.330;2023-05-10T01:43:17;13.70;99.90
62998;DHT22;55949;52.590;7.330;2023-05-10T01:45:38;13.80;99.90
62998;DHT22;55949;52.590;7.330;2023-05-10T01:46:40;13.90;99.90
62998;DHT22;55949;52.590;7.330;2023-05-10T01:47:48;13.60;99.90
62998;DHT22;55949;52.590;7.330;2023-05-10T01:48:55;13.60;99.90
62998;DHT22;55949;52.590;7.330;2023-05-10T01:50:01;13.40;99.90
62998;DHT22;55949;52.590;7.330;2023-05-10T01:51:02;13.30;99.90
62998;DHT22;55949;52.590;7.330;2023-05-10T01:52:12;13.30;99.90
62998;DHT22;55949;52.590;7.330;2023-05-10T01:53:13;13.20;99.90
62998;DHT22;55949;52.590;7.330;2023-05-10T01:54:19;13.20;99.90
62998;DHT22;55949;52.590;7.330;2023-05-10T01:55:22;13.10;99.90
62998;DHT22;55949;52.590;7.330;2023-05-10T01:56:26;13.10;99.90
62998;DHT22;55949;52.590;7.330;2023-05-10T01:57:32;13.10;99.90
62998;DHT22;55949;52.590;7.330;2023-05-10T01:58:34;13.00;99.90
62998;DHT22;55949;52.590;7.330;2023-05-10T01:59:38;13.10;99.90
62998;DHT22;55949;52.590;7.330;2023-05-10T02:00:46;13.20;99.90
62998;DHT22;55949;52.590;7.330;2023-05-10T02:01:48;13.10;99.90
62998;DHT22;55949;52.590;7.330;2023-05-10T02:02:50;13.00;99.90
62998;DHT22;55949;52.590;7.330;2023-05-10T02:03:55;13.10;99.90
62998;DHT22;55949;52.590;7.330;2023-05-10T02:04:58;13.00;99.90
62998;DHT22;55949;52.590;7.330;2023-05-10T02:05:59;13.10;99.90
62998;DHT22;55949;52.590;7.330;2023-05-10T02:07:00;13.10;99.90
62998;DHT22;55949;52.590;7.330;2023-05-10T02:08:04;13.10;99.90
62998;DHT22;55949;52.590;7.330;2023-05-10T02:09:07;13.00;99.90
62998;DHT22;55949;52.590;7.330;2023-05-10T02:10:09;12.90;99.90
62998;DHT22;55949;52.590;7.330;2023-05-10T02:11:13;12.90;99.90
62998;DHT22;55949;52.590;7.330;2023-05-10T02:12:15;13.00;99.90
62998;DHT22;55949;52.590;7.330;2023-05-10T02:13:17;13.00;99.90
62998;DHT22;55949;52.590;7.330;2023-05-10T02:14:19;12.90;99.90
62998;DHT22;55949;52.590;7.330;2023-05-10T02:15:23;13.00;99.90
62998;DHT22;55949;52.590;7.330;2023-05-10T02:16:26;13.10;99.90
62998;DHT22;55949;52.590;7.330;2023-05-10T02:17:28;13.20;99.90
62998;DHT22;55949;52.590;7.330;2023-05-10T02:18:32;13.20;99.90
62998;DHT22;55949;52.590;7.330;2023-05-10T02:19:35;13.20;99.90
62998;DHT22;55949;52.590;7.330;2023-05-10T02:20:37;13.00;99.90
62998;DHT22;55949;52.590;7.330;2023-05-10T02:21:40;13.10;99.90
62998;DHT22;55949;52.590;7.330;2023-05-10T02:22:42;13.10;99.90
62998;DHT22;55949;52.590;7.330;2023-05-10T02:23:45;13.00;99.90
62998;DHT22;55949;52.590;7.330;2023-05-10T02:24:47;13.10;99.90
62998;DHT22;55949;52.590;7.330;2023-05-10T02:25:50;13.40;99.90
62998;DHT22;55949;52.590;7.330;2023-05-10T02:26:54;13.50;99.90
62998;DHT22;55949;52.590;7.330;2023-05-10T02:27:57;13.40;99.90
62998;DHT22;55949;52.590;7.330;2023-05-10T02:29:02;13.40;99.90
62998;DHT22;55949;52.590;7.330;2023-05-10T02:30:05;13.20;99.90
62998;DHT22;55949;52.590;7.330;2023-05-10T02:31:07;13.10;99.90
62998;DHT22;55949;52.590;7.330;2023-05-10T02:32:10;13.00;99.90
62998;DHT22;55949;52.590;7.330;2023-05-10T02:33:11;13.00;99.90
62998;DHT22;55949;52.590;7.330;2023-05-10T02:34:13;13.10;99.90
62998;DHT22;55949;52.590;7.330;2023-05-10T02:35:14;13.10;99.90
62998;DHT22;55949;52.590;7.330;2023-05-10T02:36:16;13.10;99.90
62998;DHT22;55949;52.590;7.330;2023-05-10T02:37:20;13.20;99.90
62998;DHT22;55949;52.590;7.330;2023-05-10T02:38:22;13.10;99.90
62998;DHT22;55949;52.590;7.330;2023-05-10T02:39:24;13.30;99.90
62998;DHT22;55949;52.590;7.330;2023-05-10T02:40:29;13.10;99.90
62998;DHT22;55949;52.590;7.330;2023-05-10T02:41:32;13.00;99.90
62998;DHT22;55949;52.590;7.330;2023-05-10T02:42:36;13.10;99.90
62998;DHT22;55949;52.590;7.330;2023-05-10T02:43:37;13.10;99.90
62998;DHT22;55949;52.590;7.330;2023-05-10T02:44:41;12.90;99.90
62998;DHT22;55949;52.590;7.330;2023-05-10T02:45:43;13.00;99.90
62998;DHT22;55949;52.590;7.330;2023-05-10T02:46:47;12.90;99.90
62998;DHT22;55949;52.590;7.330;2023-05-10T02:47:48;12.80;99.90
62998;DHT22;55949;52.590;7.330;2023-05-10T02:48:49;12.80;99.90
62998;DHT22;55949;52.590;7.330;2023-05-10T02:49:49;12.70;99.90
62998;DHT22;55949;52.590;7.330;2023-05-10T02:50:52;12.80;99.90
62998;DHT22;55949;52.590;7.330;2023-05-10T02:51:57;12.80;99.90
62998;DHT22;55949;52.590;7.330;2023-05-10T02:53:01;12.80;99.90
62998;DHT22;55949;52.590;7.330;2023-05-10T02:54:13;12.80;99.90
62998;DHT22;55949;52.590;7.330;2023-05-10T02:55:16;13.00;99.90
62998;DHT22;55949;52.590;7.330;2023-05-10T02:56:30;12.90;99.90
62998;DHT22;55949;52.590;7.330;2023-05-10T02:57:34;12.90;99.90
62998;DHT22;55949;52.590;7.330;2023-05-10T02:58:35;12.80;99.90
62998;DHT22;55949;52.590;7.330;2023-05-10T02:59:35;12.80;99.90
62998;DHT22;55949;52.590;7.330;2023-05-10T03:00:37;12.80;99.90
62998;DHT22;55949;52.590;7.330;2023-05-10T03:01:38;12.80;99.90
62998;DHT22;55949;52.590;7.330;2023-05-10T03:02:38;12.90;99.90
62998;DHT22;55949;52.590;7.330;2023-05-10T03:03:39;12.90;99.90
62998;DHT22;55949;52.590;7.330;2023-05-10T03:04:40;12.90;99.90
62998;DHT22;55949;52.590;7.330;2023-05-10T03:05:41;13.00;99.90
62998;DHT22;55949;52.590;7.330;2023-05-10T03:06:42;12.90;99.90
62998;DHT22;55949;52.590;7.330;2023-05-10T03:07:43;12.90;99.90
62998;DHT22;55949;52.590;7.330;2023-05-10T03:08:44;13.00;99.90
62998;DHT22;55949;52.590;7.330;2023-05-10T03:09:45;13.00;99.90
62998;DHT22;55949;52.590;7.330;2023-05-10T03:11:10;12.90;99.90
62998;DHT22;55949;52.590;7.330;2023-05-10T03:14:10;12.80;99.90
62998;DHT22;55949;52.590;7.330;2023-05-10T03:17:04;12.90;99.90
62998;DHT22;55949;52.590;7.330;2023-05-10T03:20:01;13.10;99.90
62998;DHT22;55949;52.590;7.330;2023-05-10T03:21:05;13.00;99.90
62998;DHT22;55949;52.590;7.330;2023-05-10T03:22:10;13.00;99.90
62998;DHT22;55949;52.590;7.330;2023-05-10T03:23:35;12.90;99.90
62998;DHT22;55949;52.590;7.330;2023-05-10T03:24:36;12.90;99.90
62998;DHT22;55949;52.590;7.330;2023-05-10T03:25:40;12.90;99.90
62998;DHT22;55949;52.590;7.330;2023-05-10T03:26:43;12.90;99.90
62998;DHT22;55949;52.590;7.330;2023-05-10T03:27:45;12.90;99.90
62998;DHT22;55949;52.590;7.330;2023-05-10T03:28:47;13.10;99.90
62998;DHT22;55949;52.590;7.330;2023-05-10T03:29:50;13.20;99.90
62998;DHT22;55949;52.590;7.330;2023-05-10T03:30:52;13.20;99.90
62998;DHT22;55949;52.590;7.330;2023-05-10T03:31:53;13.30;99.90
62998;DHT22;55949;52.590;7.330;2023-05-10T03:32:54;13.40;99.90
62998;DHT22;55949;52.590;7.330;2023-05-10T03:33:55;13.50;99.90
62998;DHT22;55949;52.590;7.330;2023-05-10T03:34:55;13.30;99.90
62998;DHT22;55949;52.590;7.330;2023-05-10T03:35:57;13.30;99.90
62998;DHT22;55949;52.590;7.330;2023-05-10T03:36:57;13.40;99.90
62998;DHT22;55949;52.590;7.330;2023-05-10T03:37:58;13.40;99.90
62998;DHT22;55949;52.590;7.330;2023-05-10T03:38:59;13.30;99.90
62998;DHT22;55949;52.590;7.330;2023-05-10T03:40:00;13.20;99.90
62998;DHT22;55949;52.590;7.330;2023-05-10T03:41:01;13.20;99.90
62998;DHT22;55949;52.590;7.330;2023-05-10T03:42:01;13.30;99.90
62998;DHT22;55949;52.590;7.330;2023-05-10T03:43:02;13.30;99.90
62998;DHT22;55949;52.590;7.330;2023-05-10T03:44:03;13.30;99.90
62998;DHT22;55949;52.590;7.330;2023-05-10T03:45:04;13.30;99.90
62998;DHT22;55949;52.590;7.330;2023-05-10T03:46:05;13.40;99.90
62998;DHT22;55949;52.590;7.330;2023-05-10T03:47:06;13.40;99.90
62998;DHT22;55949;52.590;7.330;2023-05-10T03:48:07;13.30;99.90
62998;DHT22;55949;52.590;7.330;2023-05-10T03:49:07;13.30;99.90
62998;DHT22;55949;52.590;7.330;2023-05-10T03:50:08;13.20;99.90
62998;DHT22;55949;52.590;7.330;2023-05-10T03:51:10;13.30;99.90
62998;DHT22;55949;52.590;7.330;2023-05-10T03:52:11;13.20;99.90
62998;DHT22;55949;52.590;7.330;2023-05-10T03:53:12;13.20;99.90
62998;DHT22;55949;52.590;7.330;2023-05-10T03:54:13;13.10;99.90
62998;DHT22;55949;52.590;7.330;2023-05-10T03:55:14;13.10;99.90
62998;DHT22;55949;52.590;7.330;2023-05-10T03:56:14;13.00;99.90
62998;DHT22;55949;52.590;7.330;2023-05-10T03:57:16;13.00;99.90
62998;DHT22;55949;52.590;7.330;2023-05-10T03:58:17;13.00;99.90
62998;DHT22;55949;52.590;7.330;2023-05-10T03:59:18;13.00;99.90
62998;DHT22;55949;52.590;7.330;2023-05-10T04:00:19;13.10;99.90
62998;DHT22;55949;52.590;7.330;2023-05-10T04:01:20;13.00;99.90
62998;DHT22;55949;52.590;7.330;2023-05-10T04:02:24;13.00;99.90
62998;DHT22;55949;52.590;7.330;2023-05-10T04:03:25;13.10;99.90
62998;DHT22;55949;52.590;7.330;2023-05-10T04:04:26;13.00;99.90
62998;DHT22;55949;52.590;7.330;2023-05-10T04:05:27;13.00;99.90
62998;DHT22;55949;52.590;7.330;2023-05-10T04:06:28;13.10;99.90
62998;DHT22;55949;52.590;7.330;2023-05-10T04:07:28;13.00;99.90
62998;DHT22;55949;52.590;7.330;2023-05-10T04:08:30;12.90;99.90
62998;DHT22;55949;52.590;7.330;2023-05-10T04:09:30;12.90;99.90
62998;DHT22;55949;52.590;7.330;2023-05-10T04:10:31;13.00;99.90
62998;DHT22;55949;52.590;7.330;2023-05-10T04:11:32;13.10;99.90
62998;DHT22;55949;52.590;7.330;2023-05-10T04:12:33;13.10;99.90
62998;DHT22;55949;52.590;7.330;2023-05-10T04:13:34;13.20;99.90
62998;DHT22;55949;52.590;7.330;2023-05-10T04:14:35;13.20;99.90
62998;DHT22;55949;52.590;7.330;2023-05-10T04:15:35;13.10;99.90
62998;DHT22;55949;52.590;7.330;2023-05-10T04:16:36;13.00;99.90
62998;DHT22;55949;52.590;7.330;2023-05-10T04:17:37;13.00;99.90
62998;DHT22;55949;52.590;7.330;2023-05-10T04:18:38;13.10;99.90
62998;DHT22;55949;52.590;7.330;2023-05-10T04:19:40;13.10;99.90
62998;DHT22;55949;52.590;7.330;2023-05-10T04:20:40;13.00;99.90
62998;DHT22;55949;52.590;7.330;2023-05-10T04:21:41;12.90;99.90
62998;DHT22;55949;52.590;7.330;2023-05-10T04:22:42;12.90;99.90
62998;DHT22;55949;52.590;7.330;2023-05-10T04:23:42;12.90;99.90
62998;DHT22;55949;52.590;7.330;2023-05-10T04:24:43;12.90;99.90
62998;DHT22;55949;52.590;7.330;2023-05-10T04:25:44;13.00;99.90
62998;DHT22;55949;52.590;7.330;2023-05-10T04:26:44;13.10;99.90
62998;DHT22;55949;52.590;7.330;2023-05-10T04:27:45;13.10;99.90
62998;DHT22;55949;52.590;7.330;2023-05-10T04:28:46;13.00;99.90
62998;DHT22;55949;52.590;7.330;2023-05-10T04:29:47;13.00;99.90
62998;DHT22;55949;52.590;7.330;2023-05-10T04:30:47;13.00;99.90
62998;DHT22;55949;52.590;7.330;2023-05-10T04:31:48;13.00;99.90
62998;DHT22;55949;52.590;7.330;2023-05-10T04:32:49;13.00;99.90
62998;DHT22;55949;52.590;7.330;2023-05-10T04:33:50;13.00;99.90
62998;DHT22;55949;52.590;7.330;2023-05-10T04:34:50;13.00;99.90
62998;DHT22;55949;52.590;7.330;2023-05-10T04:35:52;12.90;99.90
62998;DHT22;55949;52.590;7.330;2023-05-10T04:36:53;12.90;99.90
62998;DHT22;55949;52.590;7.330;2023-05-10T04:37:54;12.90;99.90
62998;DHT22;55949;52.590;7.330;2023-05-10T04:38:54;12.80;99.90
62998;DHT22;55949;52.590;7.330;2023-05-10T04:39:55;12.80;99.90
62998;DHT22;55949;52.590;7.330;2023-05-10T04:41:06;12.80;99.90
62998;DHT22;55949;52.590;7.330;2023-05-10T04:42:07;12.80;99.90
62998;DHT22;55949;52.590;7.330;2023-05-10T04:43:08;12.90;99.90
62998;DHT22;55949;52.590;7.330;2023-05-10T04:44:09;13.00;99.90
62998;DHT22;55949;52.590;7.330;2023-05-10T04:45:10;13.10;99.90
62998;DHT22;55949;52.590;7.330;2023-05-10T04:46:10;13.10;99.90
62998;DHT22;55949;52.590;7.330;2023-05-10T04:47:11;13.00;99.90
62998;DHT22;55949;52.590;7.330;2023-05-10T04:48:13;13.00;99.90
62998;DHT22;55949;52.590;7.330;2023-05-10T04:49:14;13.00;99.90
62998;DHT22;55949;52.590;7.330;2023-05-10T04:50:15;12.90;99.90
62998;DHT22;55949;52.590;7.330;2023-05-10T04:51:15;12.90;99.90
62998;DHT22;55949;52.590;7.330;2023-05-10T04:52:16;13.00;99.90
62998;DHT22;55949;52.590;7.330;2023-05-10T04:53:18;12.90;99.90
62998;DHT22;55949;52.590;7.330;2023-05-10T04:54:19;12.80;99.90
62998;DHT22;55949;52.590;7.330;2023-05-10T04:55:19;12.80;99.90
62998;DHT22;55949;52.590;7.330;2023-05-10T04:56:20;12.80;99.90
62998;DHT22;55949;52.590;7.330;2023-05-10T04:57:22;12.90;99.90
62998;DHT22;55949;52.590;7.330;2023-05-10T04:58:23;12.90;99.90
62998;DHT22;55949;52.590;7.330;2023-05-10T04:59:23;13.00;99.90
62998;DHT22;55949;52.590;7.330;2023-05-10T05:00:24;13.00;99.90
62998;DHT22;55949;52.590;7.330;2023-05-10T05:01:25;12.90;99.90
62998;DHT22;55949;52.590;7.330;2023-05-10T05:02:25;12.80;99.90
62998;DHT22;55949;52.590;7.330;2023-05-10T05:03:26;12.90;99.90
62998;DHT22;55949;52.590;7.330;2023-05-10T05:04:27;12.90;99.90
62998;DHT22;55949;52.590;7.330;2023-05-10T05:05:27;12.90;99.90
62998;DHT22;55949;52.590;7.330;2023-05-10T05:06:28;12.90;99.90
62998;DHT22;55949;52.590;7.330;2023-05-10T05:07:29;12.90;99.90
62998;DHT22;55949;52.590;7.330;2023-05-10T05:08:31;12.90;99.90
62998;DHT22;55949;52.590;7.330;2023-05-10T05:09:31;13.00;99.90
62998;DHT22;55949;52.590;7.330;2023-05-10T05:10:32;13.00;99.90
62998;DHT22;55949;52.590;7.330;2023-05-10T05:11:33;13.10;99.90
62998;DHT22;55949;52.590;7.330;2023-05-10T05:12:34;13.00;99.90
62998;DHT22;55949;52.590;7.330;2023-05-10T05:13:35;12.80;99.90
62998;DHT22;55949;52.590;7.330;2023-05-10T05:14:36;12.90;99.90
62998;DHT22;55949;52.590;7.330;2023-05-10T05:15:36;12.90;99.90
62998;DHT22;55949;52.590;7.330;2023-05-10T05:16:37;13.00;99.90
62998;DHT22;55949;52.590;7.330;2023-05-10T05:17:38;12.90;99.90
62998;DHT22;55949;52.590;7.330;2023-05-10T05:18:39;12.90;99.90
62998;DHT22;55949;52.590;7.330;2023-05-10T05:19:40;12.90;99.90
62998;DHT22;55949;52.590;7.330;2023-05-10T05:20:40;12.90;99.90
62998;DHT22;55949;52.590;7.330;2023-05-10T05:21:41;12.80;99.90
62998;DHT22;55949;52.590;7.330;2023-05-10T05:22:42;12.80;99.90
62998;DHT22;55949;52.590;7.330;2023-05-10T05:23:43;12.80;99.90
62998;DHT22;55949;52.590;7.330;2023-05-10T05:24:44;12.70;99.90
62998;DHT22;55949;52.590;7.330;2023-05-10T05:25:45;12.70;99.90
62998;DHT22;55949;52.590;7.330;2023-05-10T05:26:46;12.70;99.90
62998;DHT22;55949;52.590;7.330;2023-05-10T05:27:47;12.60;99.90
62998;DHT22;55949;52.590;7.330;2023-05-10T05:28:48;12.70;99.90
62998;DHT22;55949;52.590;7.330;2023-05-10T05:29:51;12.70;99.90
62998;DHT22;55949;52.590;7.330;2023-05-10T05:30:52;12.70;99.90
62998;DHT22;55949;52.590;7.330;2023-05-10T05:31:53;12.70;99.90
62998;DHT22;55949;52.590;7.330;2023-05-10T05:32:54;12.80;99.90
62998;DHT22;55949;52.590;7.330;2023-05-10T05:33:55;12.80;99.90
62998;DHT22;55949;52.590;7.330;2023-05-10T05:34:56;12.70;99.90
62998;DHT22;55949;52.590;7.330;2023-05-10T05:35:56;12.80;99.90
62998;DHT22;55949;52.590;7.330;2023-05-10T05:36:57;12.90;99.90
62998;DHT22;55949;52.590;7.330;2023-05-10T05:37:58;12.90;99.90
62998;DHT22;55949;52.590;7.330;2023-05-10T05:38:59;12.90;99.90
62998;DHT22;55949;52.590;7.330;2023-05-10T05:39:59;12.90;99.90
62998;DHT22;55949;52.590;7.330;2023-05-10T05:41:02;13.00;99.90
62998;DHT22;55949;52.590;7.330;2023-05-10T05:42:03;13.10;99.90
62998;DHT22;55949;52.590;7.330;2023-05-10T05:43:04;13.00;99.90
62998;DHT22;55949;52.590;7.330;2023-05-10T05:44:08;12.90;99.90
62998;DHT22;55949;52.590;7.330;2023-05-10T05:45:09;13.00;99.90
62998;DHT22;55949;52.590;7.330;2023-05-10T05:46:13;12.90;99.90
62998;DHT22;55949;52.590;7.330;2023-05-10T05:47:13;12.90;99.90
62998;DHT22;55949;52.590;7.330;2023-05-10T05:48:14;12.90;99.90
62998;DHT22;55949;52.590;7.330;2023-05-10T05:49:15;12.90;99.90
62998;DHT22;55949;52.590;7.330;2023-05-10T05:50:16;12.90;99.90
62998;DHT22;55949;52.590;7.330;2023-05-10T05:51:17;13.00;99.90
62998;DHT22;55949;52.590;7.330;2023-05-10T05:52:17;13.10;99.90
62998;DHT22;55949;52.590;7.330;2023-05-10T05:53:19;13.00;99.90
62998;DHT22;55949;52.590;7.330;2023-05-10T05:54:20;13.00;99.90
62998;DHT22;55949;52.590;7.330;2023-05-10T05:55:21;13.00;99.90
62998;DHT22;55949;52.590;7.330;2023-05-10T05:56:22;13.10;99.90
62998;DHT22;55949;52.590;7.330;2023-05-10T05:57:26;13.20;99.90
62998;DHT22;55949;52.590;7.330;2023-05-10T05:58:27;13.30;99.90
62998;DHT22;55949;52.590;7.330;2023-05-10T05:59:28;13.30;99.90
62998;DHT22;55949;52.590;7.330;2023-05-10T06:00:30;13.40;99.90
62998;DHT22;55949;52.590;7.330;2023-05-10T06:01:31;13.40;99.90
62998;DHT22;55949;52.590;7.330;2023-05-10T06:02:32;13.50;99.90
62998;DHT22;55949;52.590;7.330;2023-05-10T06:03:33;13.40;99.90
62998;DHT22;55949;52.590;7.330;2023-05-10T06:04:34;13.40;99.90
62998;DHT22;55949;52.590;7.330;2023-05-10T06:05:35;13.50;99.90
62998;DHT22;55949;52.590;7.330;2023-05-10T06:06:35;13.50;99.90
62998;DHT22;55949;52.590;7.330;2023-05-10T06:07:36;13.30;99.90
62998;DHT22;55949;52.590;7.330;2023-05-10T06:08:37;13.30;99.90
62998;DHT22;55949;52.590;7.330;2023-05-10T06:09:38;13.20;99.90
62998;DHT22;55949;52.590;7.330;2023-05-10T06:10:38;13.30;99.90
62998;DHT22;55949;52.590;7.330;2023-05-10T06:11:40;13.30;99.90
62998;DHT22;55949;52.590;7.330;2023-05-10T06:12:41;13.40;99.90
62998;DHT22;55949;52.590;7.330;2023-05-10T06:13:42;13.40;99.90
62998;DHT22;55949;52.590;7.330;2023-05-10T06:14:44;13.50;99.90
62998;DHT22;55949;52.590;7.330;2023-05-10T06:15:45;13.70;99.90
62998;DHT22;55949;52.590;7.330;2023-05-10T06:16:47;13.80;99.90
62998;DHT22;55949;52.590;7.330;2023-05-10T06:17:48;13.80;99.90
62998;DHT22;55949;52.590;7.330;2023-05-10T06:18:49;13.80;99.90
62998;DHT22;55949;52.590;7.330;2023-05-10T06:19:50;13.80;99.90
62998;DHT22;55949;52.590;7.330;2023-05-10T06:20:51;13.80;99.90
62998;DHT22;55949;52.590;7.330;2023-05-10T06:21:52;13.60;99.90
62998;DHT22;55949;52.590;7.330;2023-05-10T06:22:53;13.70;99.90
62998;DHT22;55949;52.590;7.330;2023-05-10T06:23:54;13.80;99.90
62998;DHT22;55949;52.590;7.330;2023-05-10T06:24:55;13.80;99.90
62998;DHT22;55949;52.590;7.330;2023-05-10T06:25:56;13.70;99.90
62998;DHT22;55949;52.590;7.330;2023-05-10T06:26:57;13.60;99.90
62998;DHT22;55949;52.590;7.330;2023-05-10T06:28:00;13.40;99.90
62998;DHT22;55949;52.590;7.330;2023-05-10T06:29:02;13.50;99.90
62998;DHT22;55949;52.590;7.330;2023-05-10T06:30:03;13.60;99.90
62998;DHT22;55949;52.590;7.330;2023-05-10T06:31:05;13.70;99.90
62998;DHT22;55949;52.590;7.330;2023-05-10T06:32:07;13.50;99.90
62998;DHT22;55949;52.590;7.330;2023-05-10T06:33:08;13.60;99.90
62998;DHT22;55949;52.590;7.330;2023-05-10T06:34:08;13.50;99.90
62998;DHT22;55949;52.590;7.330;2023-05-10T06:35:11;13.50;99.90
62998;DHT22;55949;52.590;7.330;2023-05-10T06:36:11;13.50;99.90
62998;DHT22;55949;52.590;7.330;2023-05-10T06:37:13;13.60;99.90
62998;DHT22;55949;52.590;7.330;2023-05-10T06:38:14;13.70;99.90
62998;DHT22;55949;52.590;7.330;2023-05-10T06:39:15;13.60;99.90
62998;DHT22;55949;52.590;7.330;2023-05-10T06:40:16;13.70;99.90
62998;DHT22;55949;52.590;7.330;2023-05-10T06:41:17;13.70;99.90
62998;DHT22;55949;52.590;7.330;2023-05-10T06:42:18;13.70;99.90
62998;DHT22;55949;52.590;7.330;2023-05-10T06:43:19;13.60;99.90
62998;DHT22;55949;52.590;7.330;2023-05-10T06:44:20;13.50;99.90
62998;DHT22;55949;52.590;7.330;2023-05-10T06:45:21;13.50;99.90
62998;DHT22;55949;52.590;7.330;2023-05-10T06:46:21;13.70;99.90
62998;DHT22;55949;52.590;7.330;2023-05-10T06:47:22;13.80;99.90
62998;DHT22;55949;52.590;7.330;2023-05-10T06:48:23;13.70;99.90
62998;DHT22;55949;52.590;7.330;2023-05-10T06:49:23;13.70;99.90